createdAt,value
2023-01-04T00:01:23.003Z,101728.78
2023-01-04T00:03:50.077Z,101739.25
2023-01-04T00:06:18.455Z,101731.06
2023-01-04T00:08:45.411Z,101732.97
2023-01-04T00:11:23.875Z,101727.75
2023-01-04T00:13:53.730Z,101725.25
2023-01-04T00:16:24.047Z,101723.31
2023-01-04T00:18:52.364Z,101728.47
2023-01-04T00:21:27.462Z,101710.78
2023-01-04T00:23:57.881Z,101722.50
2023-01-04T00:26:28.979Z,101709.22
2023-01-04T00:29:01.963Z,101711.81
2023-01-04T00:31:29.597Z,101700.41
2023-01-04T00:34:02.668Z,101708.28
2023-01-04T00:36:30.318Z,101704.53
2023-01-04T00:39:09.956Z,101712.66
2023-01-04T00:42:00.884Z,101712.72
2023-01-04T00:44:29.572Z,101702.22
2023-01-04T00:46:57.092Z,101710.41
2023-01-04T00:49:24.736Z,101701.91
2023-01-04T00:51:51.782Z,101690.59
2023-01-04T00:54:19.742Z,101698.66
2023-01-04T00:56:48.513Z,101712.53
2023-01-04T00:59:19.781Z,101718.50
2023-01-04T01:01:47.967Z,101710.13
2023-01-04T01:04:18.360Z,101710.53
2023-01-04T01:06:45.676Z,101700.75
2023-01-04T01:09:13.154Z,101687.47
2023-01-04T01:11:40.553Z,101687.75
2023-01-04T01:14:09.194Z,101690.56
2023-01-04T01:16:54.362Z,101674.56
2023-01-04T01:19:22.834Z,101672.25
2023-01-04T01:21:49.893Z,101684.69
2023-01-04T01:24:19.865Z,101676.63
2023-01-04T01:26:47.560Z,101672.41
2023-01-04T01:29:14.923Z,101662.63
2023-01-04T01:31:42.330Z,101657.19
2023-01-04T01:34:09.715Z,101663.56
2023-01-04T01:36:37.463Z,101659.69
2023-01-04T01:39:05.889Z,101666.63
2023-01-04T01:41:35.394Z,101667.94
2023-01-04T01:44:42.006Z,101663.16
2023-01-04T01:47:42.179Z,101682.00
2023-01-04T01:50:27.680Z,101668.25
2023-01-04T01:52:58.902Z,101663.13
2023-01-04T01:55:26.363Z,101661.88
2023-01-04T01:57:54.776Z,101665.16
2023-01-04T02:00:21.804Z,101646.53
2023-01-04T02:03:29.956Z,101658.84
2023-01-04T02:05:58.940Z,101662.66
2023-01-04T02:08:26.713Z,101662.13
2023-01-04T02:10:53.724Z,101650.41
2023-01-04T02:13:46.329Z,101650.97
2023-01-04T02:16:23.081Z,101655.63
2023-01-04T02:19:07.220Z,101651.91
2023-01-04T02:22:18.882Z,101657.31
2023-01-04T02:25:14.010Z,101657.19
2023-01-04T02:27:51.506Z,101657.66
2023-01-04T02:30:24.364Z,101648.56
2023-01-04T02:33:11.781Z,101661.88
2023-01-04T02:36:00.111Z,101653.00
2023-01-04T02:38:57.907Z,101662.63
2023-01-04T02:41:37.365Z,101671.56
2023-01-04T02:44:50.283Z,101674.00
2023-01-04T02:47:50.116Z,101668.06
2023-01-04T02:50:32.958Z,101662.38
2023-01-04T02:53:18.624Z,101659.47
2023-01-04T02:56:52.803Z,101653.00
2023-01-04T02:59:28.600Z,101660.31
2023-01-04T03:02:34.514Z,101643.44
2023-01-04T03:06:16.742Z,101636.13
2023-01-04T03:09:08.784Z,101622.72
2023-01-04T03:12:10.409Z,101637.19
2023-01-04T03:15:10.677Z,101619.22
2023-01-04T03:18:11.898Z,101620.91
2023-01-04T03:20:39.257Z,101608.66
2023-01-04T03:23:28.050Z,101609.91
2023-01-04T03:26:28.048Z,101616.25
2023-01-04T03:29:17.202Z,101606.91
2023-01-04T03:32:15.702Z,101597.81
2023-01-04T03:35:01.526Z,101608.63
2023-01-04T03:37:51.341Z,101607.84
2023-01-04T03:40:48.534Z,101602.75
2023-01-04T03:43:48.762Z,101583.84
2023-01-04T03:47:08.351Z,101581.19
2023-01-04T03:49:57.437Z,101580.75
2023-01-04T03:52:28.780Z,101567.22
2023-01-04T03:54:57.871Z,101577.41
2023-01-04T03:57:26.162Z,101568.59
2023-01-04T04:00:01.387Z,101561.16
2023-01-04T04:02:33.405Z,101554.00
2023-01-04T04:05:18.619Z,101563.03
2023-01-04T04:08:04.513Z,101544.50
2023-01-04T04:10:31.527Z,101550.22
2023-01-04T04:12:58.479Z,101549.28
2023-01-04T04:15:25.464Z,101536.25
2023-01-04T04:17:52.396Z,101538.59
2023-01-04T04:20:19.335Z,101538.50
2023-01-04T04:22:46.340Z,101557.53
2023-01-04T04:25:13.427Z,101547.34
2023-01-04T04:27:40.405Z,101527.91
2023-01-04T04:30:08.085Z,101535.28
2023-01-04T04:32:35.148Z,101547.88
2023-01-04T04:35:02.130Z,101544.19
2023-01-04T04:37:32.010Z,101522.13
2023-01-04T04:39:59.318Z,101537.13
2023-01-04T04:42:26.419Z,101529.31
2023-01-04T04:44:53.442Z,101516.06
2023-01-04T04:47:20.564Z,101527.16
2023-01-04T04:49:47.546Z,101503.16
2023-01-04T04:52:14.811Z,101516.09
2023-01-04T04:54:41.764Z,101518.41
2023-01-04T04:57:08.750Z,101509.09
2023-01-04T04:59:36.784Z,101513.06
2023-01-04T05:02:04.057Z,101521.00
2023-01-04T05:04:31.097Z,101522.63
2023-01-04T05:06:58.033Z,101521.06
2023-01-04T05:09:24.975Z,101521.97
2023-01-04T05:12:10.255Z,101519.66
2023-01-04T05:14:37.365Z,101508.22
2023-01-04T05:17:04.488Z,101514.28
2023-01-04T05:19:31.544Z,101520.03
2023-01-04T05:21:58.509Z,101522.16
2023-01-04T05:24:25.471Z,101523.81
2023-01-04T05:26:52.442Z,101521.81
2023-01-04T05:29:38.134Z,101511.50
2023-01-04T05:32:05.746Z,101521.06
2023-01-04T05:34:32.695Z,101510.88
2023-01-04T05:36:59.641Z,101504.88
2023-01-04T05:39:26.570Z,101509.09
2023-01-04T05:42:12.019Z,101514.72
2023-01-04T05:44:38.949Z,101505.78
2023-01-04T05:47:11.146Z,101511.50
2023-01-04T05:49:41.671Z,101510.63
2023-01-04T05:52:11.030Z,101514.81
2023-01-04T05:54:38.005Z,101514.00
2023-01-04T05:57:05.214Z,101533.59
2023-01-04T05:59:39.032Z,101518.88
2023-01-04T06:02:21.290Z,101521.00
2023-01-04T06:04:54.728Z,101519.34
2023-01-04T06:07:25.340Z,101516.47
2023-01-04T06:09:52.332Z,101513.22
2023-01-04T06:12:19.457Z,101522.03
2023-01-04T06:14:46.483Z,101513.91
2023-01-04T06:17:13.583Z,101512.41
2023-01-04T06:19:40.628Z,101510.66
2023-01-04T06:22:07.988Z,101507.81
2023-01-04T06:24:35.289Z,101499.53
2023-01-04T06:27:03.433Z,101504.44
2023-01-04T06:29:30.409Z,101493.31
2023-01-04T06:31:57.427Z,101488.94
2023-01-04T06:34:30.485Z,101489.81
2023-01-04T06:36:58.709Z,101498.41
2023-01-04T06:39:25.676Z,101493.44
2023-01-04T06:41:52.704Z,101487.38
2023-01-04T06:44:19.737Z,101486.91
2023-01-04T06:46:46.715Z,101481.25
2023-01-04T06:49:14.469Z,101484.66
2023-01-04T06:51:41.668Z,101492.03
2023-01-04T06:54:11.837Z,101485.06
2023-01-04T06:56:42.946Z,101480.78
2023-01-04T06:59:10.019Z,101486.53
2023-01-04T07:01:37.069Z,101476.84
2023-01-04T07:04:04.448Z,101479.13
2023-01-04T07:06:31.513Z,101475.47
2023-01-04T07:08:58.531Z,101454.09
2023-01-04T07:11:25.514Z,101451.16
2023-01-04T07:13:52.925Z,101452.00
2023-01-04T07:16:20.756Z,101458.59
2023-01-04T07:18:47.745Z,101455.84
2023-01-04T07:21:14.868Z,101461.41
2023-01-04T07:23:41.891Z,101467.25
2023-01-04T07:26:08.854Z,101460.09
2023-01-04T07:28:54.212Z,101459.41
2023-01-04T07:31:21.354Z,101452.44
2023-01-04T07:33:51.008Z,101451.09
2023-01-04T07:36:18.255Z,101454.44
2023-01-04T07:38:45.246Z,101455.66
2023-01-04T07:41:12.181Z,101458.72
2023-01-04T07:43:39.169Z,101459.44
2023-01-04T07:46:06.471Z,101462.38
2023-01-04T07:48:33.503Z,101451.88
2023-01-04T07:51:00.784Z,101441.50
2023-01-04T07:53:27.885Z,101443.81
2023-01-04T07:55:59.349Z,101466.38
2023-01-04T07:58:30.901Z,101464.81
2023-01-04T08:01:08.759Z,101467.66
2023-01-04T08:03:35.883Z,101463.97
2023-01-04T08:06:05.228Z,101471.47
2023-01-04T08:08:32.353Z,101470.34
2023-01-04T08:11:09.080Z,101462.13
2023-01-04T08:13:36.184Z,101463.09
2023-01-04T08:16:03.959Z,101470.50
2023-01-04T08:18:30.919Z,101471.78
2023-01-04T08:21:09.196Z,101454.22
2023-01-04T08:23:37.700Z,101472.38
2023-01-04T08:26:08.424Z,101461.72
2023-01-04T08:28:36.516Z,101459.44
2023-01-04T08:31:30.369Z,101456.56
2023-01-04T08:33:58.628Z,101457.81
2023-01-04T08:36:29.197Z,101447.94
2023-01-04T08:39:04.840Z,101452.31
2023-01-04T08:44:23.830Z,101454.81
2023-01-04T08:46:52.377Z,101461.69
2023-01-04T08:49:20.271Z,101461.94
2023-01-04T08:51:48.280Z,101468.81
2023-01-04T08:54:15.792Z,101466.72
2023-01-04T08:56:43.564Z,101486.31
2023-01-04T08:59:13.030Z,101470.91
2023-01-04T09:01:40.573Z,101470.03
2023-01-04T09:04:07.815Z,101461.88
2023-01-04T09:06:34.919Z,101464.38
2023-01-04T09:09:02.011Z,101459.88
2023-01-04T09:11:29.092Z,101463.13
2023-01-04T09:14:06.683Z,101462.94
2023-01-04T09:16:35.986Z,101462.81
2023-01-04T09:19:03.236Z,101445.75
2023-01-04T09:21:30.335Z,101431.84
2023-01-04T09:23:59.046Z,101448.41
2023-01-04T09:26:26.897Z,101444.81
2023-01-04T09:28:56.152Z,101450.13
2023-01-04T09:31:29.224Z,101465.66
2023-01-04T09:34:15.339Z,101465.00
2023-01-04T09:36:44.579Z,101457.97
2023-01-04T09:39:20.863Z,101457.97
2023-01-04T09:42:04.113Z,101458.81
2023-01-04T09:45:22.545Z,101463.75
2023-01-04T09:47:39.939Z,101483.16
2023-01-04T09:50:27.354Z,101468.41
2023-01-04T09:53:09.059Z,101454.69
2023-01-04T09:55:42.870Z,101470.16
2023-01-04T09:58:28.717Z,101463.50
2023-01-04T10:01:41.467Z,101464.78
2023-01-04T10:04:45.311Z,101467.19
2023-01-04T10:07:31.854Z,101471.38
2023-01-04T10:10:00.240Z,101480.00
2023-01-04T10:12:59.944Z,101480.38
2023-01-04T10:15:47.551Z,101484.31
2023-01-04T10:21:35.220Z,101475.50
2023-01-04T10:24:20.145Z,101472.97
2023-01-04T10:26:54.328Z,101474.81
2023-01-04T10:30:08.053Z,101476.44
2023-01-04T10:32:44.473Z,101473.94
2023-01-04T10:35:24.610Z,101472.13
2023-01-04T10:38:00.252Z,101469.81
2023-01-04T10:40:31.778Z,101463.66
2023-01-04T10:43:26.238Z,101472.78
2023-01-04T10:46:05.955Z,101464.66
2023-01-04T10:49:04.661Z,101468.78
2023-01-04T10:51:58.897Z,101468.53
2023-01-04T10:54:38.067Z,101473.75
2023-01-04T10:57:45.786Z,101474.38
2023-01-04T11:00:23.926Z,101467.91
2023-01-04T11:03:02.127Z,101465.53
2023-01-04T11:05:44.717Z,101472.09
2023-01-04T11:08:24.326Z,101469.03
2023-01-04T11:10:56.390Z,101450.47
2023-01-04T11:13:24.739Z,101442.50
2023-01-04T11:15:52.831Z,101440.22
2023-01-04T11:18:19.994Z,101449.50
2023-01-04T11:20:47.072Z,101460.38
2023-01-04T11:23:18.135Z,101454.66
2023-01-04T11:25:57.153Z,101467.78
2023-01-04T11:28:43.262Z,101461.38
2023-01-04T11:31:25.186Z,101457.31
2023-01-04T11:34:01.724Z,101465.63
2023-01-04T11:36:31.403Z,101470.16
2023-01-04T11:38:59.225Z,101462.66
2023-01-04T11:41:27.718Z,101465.88
2023-01-04T11:44:07.018Z,101454.28
2023-01-04T11:46:35.071Z,101453.59
2023-01-04T11:49:02.118Z,101457.06
2023-01-04T11:51:29.080Z,101455.75
2023-01-04T11:54:13.972Z,101454.38
2023-01-04T11:57:11.669Z,101446.47
2023-01-04T11:59:39.269Z,101447.91
2023-01-04T12:02:50.633Z,101436.91
2023-01-04T12:05:28.085Z,101436.97
2023-01-04T12:07:56.519Z,101439.50
2023-01-04T12:10:27.321Z,101429.38
2023-01-04T12:12:56.588Z,101416.81
2023-01-04T12:15:56.613Z,101419.72
2023-01-04T12:18:38.295Z,101420.78
2023-01-04T12:21:06.015Z,101411.81
2023-01-04T12:23:34.372Z,101414.75
2023-01-04T12:26:02.557Z,101412.47
2023-01-04T12:28:36.307Z,101420.94
2023-01-04T12:31:22.047Z,101413.56
2023-01-04T12:34:17.481Z,101424.09
2023-01-04T12:37:01.414Z,101437.13
2023-01-04T12:39:44.827Z,101430.78
2023-01-04T12:42:18.812Z,101422.13
2023-01-04T12:44:51.815Z,101416.88
2023-01-04T12:47:37.344Z,101422.00
2023-01-04T12:50:13.657Z,101420.03
2023-01-04T12:55:31.650Z,101412.03
2023-01-04T12:59:24.290Z,101411.44
2023-01-04T13:01:32.802Z,101404.25
2023-01-04T13:04:23.504Z,101410.09
2023-01-04T13:06:50.784Z,101406.06
2023-01-04T13:09:24.874Z,101399.75
2023-01-04T13:12:16.767Z,101399.59
2023-01-04T13:14:52.041Z,101415.53
2023-01-04T13:17:22.239Z,101405.34
2023-01-04T13:19:49.656Z,101413.84
2023-01-04T13:22:28.379Z,101417.94
2023-01-04T13:24:58.508Z,101415.91
2023-01-04T13:27:26.823Z,101412.88
2023-01-04T13:29:54.199Z,101414.69
2023-01-04T13:32:28.435Z,101411.91
2023-01-04T13:35:18.705Z,101408.31
2023-01-04T13:37:51.127Z,101401.63
2023-01-04T13:40:34.418Z,101410.44
2023-01-04T13:43:46.243Z,101409.16
2023-01-04T13:46:20.890Z,101399.56
2023-01-04T13:48:52.428Z,101419.47
2023-01-04T13:51:38.033Z,101417.84
2023-01-04T13:54:18.667Z,101428.78
2023-01-04T13:56:49.911Z,101418.94
2023-01-04T13:59:22.142Z,101422.53
2023-01-04T14:01:49.991Z,101413.88
2023-01-04T14:04:28.019Z,101421.38
2023-01-04T14:07:00.018Z,101400.34
2023-01-04T14:09:43.613Z,101387.19
2023-01-04T14:12:20.725Z,101405.72
2023-01-04T14:15:33.720Z,101400.22
2023-01-04T14:18:00.764Z,101408.13
2023-01-04T14:20:28.076Z,101411.25
2023-01-04T14:22:57.443Z,101407.50
2023-01-04T14:25:41.053Z,101416.97
2023-01-04T14:28:32.444Z,101417.66
2023-01-04T14:30:59.445Z,101418.88
2023-01-04T14:33:45.161Z,101419.25
2023-01-04T14:36:30.124Z,101436.56
2023-01-04T14:39:11.833Z,101420.69
2023-01-04T14:41:41.859Z,101425.69
2023-01-04T14:44:21.639Z,101417.00
2023-01-04T14:46:53.451Z,101429.94
2023-01-04T14:49:22.325Z,101428.25
2023-01-04T14:51:53.301Z,101440.88
2023-01-04T14:54:25.012Z,101444.44
2023-01-04T14:56:54.247Z,101446.00
2023-01-04T14:59:25.088Z,101448.63
2023-01-04T15:01:57.032Z,101448.22
2023-01-04T15:04:24.796Z,101454.66
2023-01-04T15:07:00.574Z,101452.16
2023-01-04T15:09:28.656Z,101455.78
2023-01-04T15:11:56.191Z,101458.78
2023-01-04T15:14:23.829Z,101455.38
2023-01-04T15:16:50.844Z,101458.69
2023-01-04T15:19:17.851Z,101465.69
2023-01-04T15:21:44.944Z,101470.72
2023-01-04T15:24:11.947Z,101469.84
2023-01-04T15:26:40.022Z,101471.88
2023-01-04T15:29:08.560Z,101469.03
2023-01-04T15:31:39.722Z,101482.53
2023-01-04T15:34:09.318Z,101467.19
2023-01-04T15:36:38.786Z,101471.78
2023-01-04T15:39:07.270Z,101464.19
2023-01-04T15:41:52.804Z,101463.50
2023-01-04T15:44:19.870Z,101474.19
2023-01-04T15:46:47.076Z,101472.66
2023-01-04T15:49:17.466Z,101464.78
2023-01-04T15:51:45.784Z,101465.34
2023-01-04T15:54:13.081Z,101471.84
2023-01-04T15:56:40.213Z,101476.31
2023-01-04T15:59:07.229Z,101472.28
2023-01-04T16:01:34.209Z,101487.56
2023-01-04T16:04:02.595Z,101478.97
2023-01-04T16:06:29.672Z,101475.59
2023-01-04T16:08:58.978Z,101468.13
2023-01-04T16:11:26.218Z,101471.75
2023-01-04T16:13:53.929Z,101480.75
2023-01-04T16:16:24.117Z,101485.28
2023-01-04T16:18:54.061Z,101481.72
2023-01-04T16:21:24.769Z,101481.88
2023-01-04T16:23:58.365Z,101483.56
2023-01-04T16:26:29.004Z,101495.19
2023-01-04T16:28:56.214Z,101484.63
2023-01-04T16:31:23.572Z,101488.94
2023-01-04T16:33:54.312Z,101485.88
2023-01-04T16:36:21.281Z,101485.78
2023-01-04T16:38:48.423Z,101483.66
2023-01-04T16:41:18.648Z,101480.75
2023-01-04T16:43:52.124Z,101488.13
2023-01-04T16:46:34.774Z,101479.91
2023-01-04T16:49:09.768Z,101489.66
2023-01-04T16:51:39.297Z,101483.09
2023-01-04T16:54:09.800Z,101482.59
2023-01-04T16:56:38.117Z,101482.88
2023-01-04T16:59:06.155Z,101469.34
2023-01-04T17:01:37.012Z,101461.63
2023-01-04T17:04:10.253Z,101476.94
2023-01-04T17:06:44.453Z,101470.56
2023-01-04T17:09:19.938Z,101477.38
2023-01-04T17:12:46.362Z,101463.00
2023-01-04T17:14:44.341Z,101467.50
2023-01-04T17:17:11.370Z,101486.97
2023-01-04T17:19:38.309Z,101486.22
2023-01-04T17:22:05.350Z,101498.34
2023-01-04T17:24:32.294Z,101504.03
2023-01-04T17:26:59.414Z,101505.22
2023-01-04T17:29:26.406Z,101513.59
2023-01-04T17:31:53.432Z,101521.72
2023-01-04T17:34:23.189Z,101522.38
2023-01-04T17:36:50.505Z,101527.81
2023-01-04T17:39:19.344Z,101527.63
2023-01-04T17:41:47.447Z,101533.06
2023-01-04T17:44:14.458Z,101536.72
2023-01-04T17:46:42.082Z,101532.72
2023-01-04T17:49:31.872Z,101537.94
2023-01-04T17:52:00.053Z,101515.41
2023-01-04T17:54:27.224Z,101533.84
2023-01-04T17:56:54.335Z,101535.09
2023-01-04T17:59:21.362Z,101546.88
2023-01-04T18:01:48.667Z,101545.72
2023-01-04T18:04:15.814Z,101548.94
2023-01-04T18:06:42.786Z,101549.19
2023-01-04T18:09:14.265Z,101557.16
2023-01-04T18:11:44.537Z,101551.31
2023-01-04T18:14:14.061Z,101553.56
2023-01-04T18:16:59.506Z,101559.31
2023-01-04T18:19:29.841Z,101576.38
2023-01-04T18:21:57.570Z,101571.84
2023-01-04T18:24:41.735Z,101587.84
2023-01-04T18:27:21.954Z,101568.81
2023-01-04T18:29:50.353Z,101574.84
2023-01-04T18:32:17.448Z,101576.28
2023-01-04T18:34:44.525Z,101562.06
2023-01-04T18:37:11.572Z,101566.13
2023-01-04T18:39:38.504Z,101581.69
2023-01-04T18:42:05.489Z,101575.47
2023-01-04T18:44:34.388Z,101580.50
2023-01-04T18:47:02.385Z,101586.75
2023-01-04T18:49:29.440Z,101588.19
2023-01-04T18:51:56.431Z,101590.22
2023-01-04T18:54:23.646Z,101594.66
2023-01-04T18:56:53.231Z,101589.38
2023-01-04T18:59:24.224Z,101592.19
2023-01-04T19:01:51.322Z,101602.03
2023-01-04T19:04:19.059Z,101608.19
2023-01-04T19:06:46.082Z,101605.41
2023-01-04T19:09:13.093Z,101592.59
2023-01-04T19:11:40.305Z,101594.75
2023-01-04T19:14:07.317Z,101589.16
2023-01-04T19:16:34.323Z,101582.34
2023-01-04T19:19:01.515Z,101577.41
2023-01-04T19:21:29.340Z,101581.75
2023-01-04T19:26:26.404Z,101590.66
2023-01-04T19:28:53.424Z,101596.09
2023-01-04T19:31:22.171Z,101614.44
2023-01-04T19:33:49.732Z,101613.56
2023-01-04T19:36:18.774Z,101613.25
2023-01-04T19:38:46.037Z,101619.41
2023-01-04T19:41:25.281Z,101636.75
2023-01-04T19:43:58.379Z,101639.56
2023-01-04T19:46:25.558Z,101642.13
2023-01-04T19:48:52.570Z,101644.97
2023-01-04T19:51:19.585Z,101649.19
2023-01-04T19:53:47.034Z,101643.81
2023-01-04T19:56:16.853Z,101647.00
2023-01-04T19:58:44.563Z,101660.47
2023-01-04T20:01:20.732Z,101649.75
2023-01-04T20:03:48.639Z,101642.03
2023-01-04T20:06:16.778Z,101648.16
2023-01-04T20:08:44.358Z,101632.28
2023-01-04T20:11:12.105Z,101629.22
2023-01-04T20:13:40.352Z,101627.03
2023-01-04T20:16:08.426Z,101632.84
2023-01-04T20:18:36.837Z,101635.50
2023-01-04T20:21:10.619Z,101639.66
2023-01-04T20:23:38.716Z,101630.31
2023-01-04T20:26:15.170Z,101623.97
2023-01-04T20:28:44.141Z,101622.19
2023-01-04T20:31:15.420Z,101629.13
2023-01-04T20:33:42.599Z,101627.97
2023-01-04T20:36:15.847Z,101634.91
2023-01-04T20:38:45.638Z,101626.47
2023-01-04T20:41:19.647Z,101639.22
2023-01-04T20:43:47.567Z,101630.03
2023-01-04T20:46:21.405Z,101631.16
2023-01-04T20:48:49.054Z,101632.94
2023-01-04T20:51:22.820Z,101632.22
2023-01-04T20:53:50.191Z,101635.38
2023-01-04T20:56:23.401Z,101638.66
2023-01-04T20:58:51.048Z,101641.66
2023-01-04T21:01:20.796Z,101639.44
2023-01-04T21:03:48.393Z,101649.50
2023-01-04T21:06:18.300Z,101649.78
2023-01-04T21:08:46.392Z,101653.88
2023-01-04T21:11:14.377Z,101658.34
2023-01-04T21:13:42.167Z,101666.91
2023-01-04T21:16:10.428Z,101662.28
2023-01-04T21:18:38.444Z,101658.63
2023-01-04T21:21:13.283Z,101664.56
2023-01-04T21:23:43.271Z,101659.91
2023-01-04T21:26:15.318Z,101662.31
2023-01-04T21:28:42.326Z,101672.56
2023-01-04T21:31:16.712Z,101672.56
2023-01-04T21:33:47.752Z,101657.53
2023-01-04T21:36:21.720Z,101654.09
2023-01-04T21:38:54.132Z,101650.88
2023-01-04T21:41:25.466Z,101660.22
2023-01-04T21:43:56.163Z,101655.31
2023-01-04T21:46:25.234Z,101659.03
2023-01-04T21:48:57.984Z,101653.03
2023-01-04T21:51:25.161Z,101645.75
2023-01-04T21:53:52.211Z,101653.94
2023-01-04T21:56:21.886Z,101661.75
2023-01-04T21:58:49.532Z,101668.91
2023-01-04T22:01:23.568Z,101658.09
2023-01-04T22:03:50.874Z,101657.94
2023-01-04T22:06:18.949Z,101660.66
2023-01-04T22:08:46.688Z,101645.28
2023-01-04T22:11:15.141Z,101655.09
2023-01-04T22:13:42.814Z,101667.84
2023-01-04T22:16:14.373Z,101668.31
2023-01-04T22:18:41.637Z,101655.22
2023-01-04T22:21:13.105Z,101659.22
2023-01-04T22:23:40.153Z,101650.22
2023-01-04T22:26:07.160Z,101655.81
2023-01-04T22:28:36.983Z,101652.28
2023-01-04T22:31:12.044Z,101649.41
2023-01-04T22:33:40.083Z,101650.88
2023-01-04T22:36:21.108Z,101648.28
2023-01-04T22:38:54.208Z,101661.97
2023-01-04T22:41:24.218Z,101669.75
2023-01-04T22:44:03.341Z,101655.44
2023-01-04T22:46:32.552Z,101671.84
2023-01-04T22:49:01.340Z,101658.56
2023-01-04T22:51:30.531Z,101669.31
2023-01-04T22:54:01.337Z,101674.19
2023-01-04T22:56:29.367Z,101684.09
2023-01-04T22:58:57.979Z,101666.13
2023-01-04T23:01:31.902Z,101681.03
2023-01-04T23:04:01.183Z,101681.75
2023-01-04T23:06:30.561Z,101687.56
2023-01-04T23:09:07.947Z,101681.44
2023-01-04T23:11:37.266Z,101699.09
2023-01-04T23:14:07.292Z,101689.97
2023-01-04T23:16:34.695Z,101689.97
2023-01-04T23:19:03.644Z,101692.63
2023-01-04T23:21:31.874Z,101689.44
2023-01-04T23:24:00.501Z,101691.06
2023-01-04T23:26:29.384Z,101690.41
2023-01-04T23:28:56.996Z,101701.50
2023-01-04T23:31:27.280Z,101700.72
2023-01-04T23:33:57.686Z,101712.31
2023-01-04T23:36:31.916Z,101707.69
2023-01-04T23:39:02.900Z,101713.00
2023-01-04T23:41:45.652Z,101720.00
2023-01-04T23:44:24.555Z,101712.91
2023-01-04T23:47:08.591Z,101713.84
2023-01-04T23:49:39.672Z,101717.22
2023-01-04T23:52:07.764Z,101703.03
2023-01-04T23:54:35.064Z,101711.22
2023-01-04T23:57:02.786Z,101717.13
2023-01-04T23:59:30.465Z,101715.56
